Time;durP1;ratioP1;P1;durP2;ratioP2;P2;SDS_P1;SDS_P2;PMS_P1;PMS_P2;Temp;Humidity;BMP_temperature;BMP_pressure;BME280_temperature;BME280_humidity;BME280_pressure;Samples;Min_cycle;Max_cycle;Signal;HPM_P1;HPM_P2
2022/01/02 00:00:13;;;;;;;9.18;5.03;;;12.20;99.90;;;;;;5015068;28;20076;-58
2022/01/02 00:02:41;;;;;;;9.55;5.57;;;12.20;99.90;;;;;;5049835;22;20439;-71
2022/01/02 00:05:12;;;;;;;11.88;5.38;;;12.10;99.90;;;;;;5036139;28;20069;-69
2022/01/02 00:07:57;;;;;;;11.07;5.45;;;12.10;99.90;;;;;;5039101;28;20022;-71
2022/01/02 00:10:24;;;;;;;8.25;5.22;;;12.10;99.90;;;;;;5040984;28;20029;-70
2022/01/02 00:12:55;;;;;;;13.32;4.88;;;12.10;99.90;;;;;;5038517;28;20040;-70
2022/01/02 00:15:21;;;;;;;11.50;5.63;;;12.10;99.90;;;;;;5038370;28;20017;-70
2022/01/02 00:17:50;;;;;;;11.20;5.40;;;12.10;99.90;;;;;;5036339;28;20033;-71
2022/01/02 00:20:20;;;;;;;9.93;5.70;;;12.10;99.90;;;;;;5040414;28;20018;-71
2022/01/02 00:22:49;;;;;;;8.98;5.57;;;12.00;99.90;;;;;;5040046;28;20022;-71
2022/01/02 00:25:27;;;;;;;12.77;6.25;;;12.00;99.90;;;;;;5037783;28;20362;-70
2022/01/02 00:27:54;;;;;;;7.53;5.30;;;12.00;99.90;;;;;;5038420;28;20359;-70
2022/01/02 00:30:19;;;;;;;9.23;5.25;;;12.10;99.90;;;;;;5038429;28;20022;-71
2022/01/02 00:32:45;;;;;;;9.15;5.53;;;12.00;99.90;;;;;;5036709;28;20040;-70
2022/01/02 00:35:11;;;;;;;8.20;5.53;;;12.00;99.90;;;;;;5036948;28;20048;-71
2022/01/02 00:37:38;;;;;;;7.53;5.00;;;12.10;99.90;;;;;;5037576;28;20025;-71
2022/01/02 00:40:04;;;;;;;9.45;5.32;;;12.10;99.90;;;;;;5041841;28;20094;-71
2022/01/02 00:42:36;;;;;;;9.48;5.10;;;12.00;99.90;;;;;;5050912;28;20029;-71
2022/01/02 00:45:13;;;;;;;8.43;5.50;;;12.10;99.90;;;;;;5039422;28;20037;-70
2022/01/02 00:47:44;;;;;;;9.40;6.05;;;12.10;99.90;;;;;;5037090;28;20378;-70
2022/01/02 00:50:19;;;;;;;;;;;12.10;99.90;;;;;;5037320;28;20131;-69
2022/01/02 00:52:48;;;;;;;7.55;4.95;;;12.10;99.90;;;;;;5037339;28;19905;-69
2022/01/02 00:55:19;;;;;;;7.63;5.00;;;12.10;99.90;;;;;;5037310;28;20068;-70
2022/01/02 00:57:56;;;;;;;8.88;5.68;;;12.10;99.90;;;;;;5037085;28;20075;-70
2022/01/02 01:00:22;;;;;;;11.85;5.68;;;12.10;99.90;;;;;;5036480;28;20029;-70
2022/01/02 01:02:52;;;;;;;10.30;5.35;;;12.10;99.90;;;;;;5037573;28;20525;-70
2022/01/02 01:05:21;;;;;;;13.13;6.13;;;12.00;99.90;;;;;;5036784;28;20537;-70
2022/01/02 01:07:55;;;;;;;7.28;5.18;;;12.10;99.90;;;;;;5036901;28;20144;-70
2022/01/02 01:10:23;;;;;;;9.93;5.72;;;12.10;99.90;;;;;;5037062;28;20030;-70
2022/01/02 01:12:52;;;;;;;9.98;5.63;;;12.00;99.90;;;;;;5035587;28;20112;-70
2022/01/02 01:15:18;;;;;;;11.13;5.63;;;12.00;99.90;;;;;;5037597;28;20022;-71
2022/01/02 01:17:45;;;;;;;10.57;6.00;;;12.10;99.90;;;;;;5037582;28;20024;-71
2022/01/02 01:20:13;;;;;;;10.80;6.25;;;12.10;99.90;;;;;;5038237;28;20033;-71
2022/01/02 01:22:40;;;;;;;10.77;5.68;;;12.10;99.90;;;;;;5039852;28;20079;-71
2022/01/02 01:25:11;;;;;;;7.80;5.13;;;12.10;99.90;;;;;;5038781;28;20025;-70
2022/01/02 01:27:37;;;;;;;10.05;5.72;;;12.10;99.90;;;;;;5040489;28;20475;-70
2022/01/02 01:30:04;;;;;;;7.95;5.32;;;12.10;99.90;;;;;;5039960;28;20064;-71
2022/01/02 01:32:29;;;;;;;8.43;5.65;;;12.10;99.90;;;;;;5038726;28;20022;-71
2022/01/02 01:34:55;;;;;;;12.45;6.28;;;12.20;99.90;;;;;;5036628;28;20049;-71
2022/01/02 01:37:21;;;;;;;8.65;6.07;;;12.10;99.90;;;;;;5036583;28;20099;-71
2022/01/02 01:39:46;;;;;;;11.20;5.80;;;12.10;99.90;;;;;;5036147;28;20106;-71
2022/01/02 01:42:12;;;;;;;9.65;6.28;;;12.10;99.90;;;;;;5036566;28;20035;-71
2022/01/02 01:47:24;;;;;;;8.27;5.35;;;12.10;99.90;;;;;;5024018;28;20107;-71
2022/01/02 01:49:50;;;;;;;11.40;6.40;;;12.00;99.90;;;;;;5036242;28;20463;-70
2022/01/02 01:52:15;;;;;;;11.10;6.15;;;12.00;99.90;;;;;;5035457;28;20120;-70
2022/01/02 01:54:41;;;;;;;9.88;6.30;;;12.00;99.90;;;;;;5035493;28;20040;-73
2022/01/02 01:57:06;;;;;;;9.00;6.18;;;11.90;99.90;;;;;;5036029;28;20026;-70
2022/01/02 01:59:32;;;;;;;9.50;7.40;;;11.90;99.90;;;;;;5036303;28;20033;-70
2022/01/02 02:01:58;;;;;;;11.32;6.70;;;11.90;99.90;;;;;;5036634;28;20029;-71
2022/01/02 02:04:23;;;;;;;10.48;6.30;;;11.90;99.90;;;;;;5036365;28;20040;-71
2022/01/02 02:06:49;;;;;;;11.30;7.28;;;11.90;99.90;;;;;;5036045;28;20026;-70
2022/01/02 02:09:15;;;;;;;13.38;7.13;;;11.90;99.90;;;;;;5034957;28;20033;-71
2022/01/02 02:11:40;;;;;;;13.95;7.20;;;11.80;99.90;;;;;;5035635;28;20029;-70
2022/01/02 02:14:07;;;;;;;11.07;6.93;;;11.80;99.90;;;;;;5034930;28;20084;-70
2022/01/02 02:16:35;;;;;;;10.82;6.88;;;11.80;99.90;;;;;;5035682;28;20025;-71
2022/01/02 02:19:01;;;;;;;14.45;7.13;;;11.80;99.90;;;;;;5033579;28;20033;-70
2022/01/02 02:21:36;;;;;;;13.35;7.03;;;11.70;99.90;;;;;;5034252;28;20025;-70
2022/01/02 02:24:06;;;;;;;14.63;7.53;;;11.80;99.90;;;;;;5034296;28;20048;-70
2022/01/02 02:26:32;;;;;;;13.52;7.50;;;11.70;99.90;;;;;;5036001;28;20028;-70
2022/01/02 02:28:58;;;;;;;15.32;8.02;;;11.70;99.90;;;;;;5036129;28;20475;-69
2022/01/02 02:31:24;;;;;;;15.93;8.00;;;11.70;99.90;;;;;;5035842;28;20053;-70
2022/01/02 02:33:49;;;;;;;12.38;7.03;;;11.60;99.90;;;;;;5036016;28;20037;-70
2022/01/02 02:36:15;;;;;;;14.30;8.00;;;11.60;99.90;;;;;;5037493;28;20443;-70
2022/01/02 02:38:41;;;;;;;12.23;7.50;;;11.60;99.90;;;;;;5035342;28;20467;-70
2022/01/02 02:41:07;;;;;;;17.90;7.50;;;11.60;99.90;;;;;;5037321;28;20128;-70
2022/01/02 02:43:42;;;;;;;13.93;7.65;;;11.50;99.90;;;;;;5040558;28;20057;-70
2022/01/02 02:51:41;;;;;;;15.50;8.27;;;11.50;99.90;;;;;;5038966;28;20120;-71
2022/01/02 02:54:09;;;;;;;15.00;8.18;;;11.50;99.90;;;;;;5038600;28;20100;-70
2022/01/02 02:56:43;;;;;;;18.33;8.20;;;11.50;99.90;;;;;;5038560;28;20021;-70
2022/01/02 02:59:11;;;;;;;14.75;8.20;;;11.50;99.90;;;;;;5039291;28;20021;-70
2022/01/02 03:01:37;;;;;;;13.65;8.10;;;11.50;99.90;;;;;;5038000;28;20026;-71
2022/01/02 03:04:03;;;;;;;15.27;8.68;;;11.50;99.90;;;;;;5038380;28;20144;-70
2022/01/02 03:06:28;;;;;;;19.45;8.77;;;11.50;99.90;;;;;;5037084;28;20566;-70
2022/01/02 03:08:54;;;;;;;12.98;7.40;;;11.50;99.90;;;;;;5038647;28;20370;-70
2022/01/02 03:11:21;;;;;;;14.90;8.73;;;11.50;99.90;;;;;;5037631;28;20049;-71
2022/01/02 03:13:52;;;;;;;14.75;7.93;;;11.50;99.90;;;;;;5039276;28;20028;-70
2022/01/02 03:16:18;;;;;;;14.63;8.00;;;11.50;99.90;;;;;;5040025;28;20032;-70
2022/01/02 03:18:43;;;;;;;16.48;8.40;;;11.50;99.90;;;;;;5040276;28;20108;-70
2022/01/02 03:21:10;;;;;;;14.23;8.10;;;11.50;99.90;;;;;;5038933;28;20450;-70
2022/01/02 03:23:36;;;;;;;16.15;8.85;;;11.50;99.90;;;;;;5042589;28;20103;-71
2022/01/02 03:26:03;;;;;;;16.60;8.48;;;11.50;99.90;;;;;;5041589;28;20102;-70
2022/01/02 03:28:28;;;;;;;14.85;9.20;;;11.40;99.90;;;;;;5041377;28;20026;-70
2022/01/02 03:30:54;;;;;;;19.55;8.60;;;11.50;99.90;;;;;;5040980;28;20021;-70
2022/01/02 03:33:19;;;;;;;16.58;8.63;;;11.50;99.90;;;;;;5040334;28;20048;-70
2022/01/02 03:35:45;;;;;;;15.65;8.75;;;11.40;99.90;;;;;;5040407;28;20025;-70
2022/01/02 03:38:10;;;;;;;16.08;8.70;;;11.40;99.90;;;;;;5040362;28;20100;-70
2022/01/02 03:40:36;;;;;;;16.15;8.25;;;11.40;99.90;;;;;;5038378;28;20036;-70
2022/01/02 03:43:02;;;;;;;17.65;9.30;;;11.40;99.90;;;;;;5038406;28;20033;-70
2022/01/02 03:45:28;;;;;;;15.30;8.77;;;11.40;99.90;;;;;;5038330;28;20063;-71
2022/01/02 03:47:54;;;;;;;18.17;8.98;;;11.40;99.90;;;;;;5038499;28;20456;-70
2022/01/02 03:50:19;;;;;;;14.23;8.13;;;11.40;99.90;;;;;;5038408;28;20116;-70
2022/01/02 03:52:45;;;;;;;15.02;8.00;;;11.40;99.90;;;;;;5038778;28;20022;-70
2022/01/02 03:55:11;;;;;;;14.57;8.50;;;11.40;99.90;;;;;;5039094;28;20375;-70
2022/01/02 03:57:37;;;;;;;21.60;9.18;;;11.40;99.90;;;;;;5041362;28;20022;-70
2022/01/02 04:00:08;;;;;;;17.58;8.55;;;11.40;99.90;;;;;;5042612;28;20091;-70
2022/01/02 04:02:37;;;;;;;14.23;8.80;;;11.40;99.90;;;;;;5042281;28;20017;-70
2022/01/02 04:05:07;;;;;;;17.77;8.90;;;11.40;99.90;;;;;;5037589;28;20071;-70
2022/01/02 04:07:33;;;;;;;18.25;9.38;;;11.40;99.90;;;;;;5036591;28;20060;-70
2022/01/02 04:10:02;;;;;;;15.60;7.95;;;11.40;99.90;;;;;;5037078;28;20025;-69
2022/01/02 04:12:28;;;;;;;17.98;8.98;;;11.40;99.90;;;;;;5037098;28;20021;-70
2022/01/02 04:14:53;;;;;;;14.05;8.18;;;11.40;99.90;;;;;;5036336;28;20056;-70
2022/01/02 04:17:19;;;;;;;16.45;8.88;;;11.50;99.90;;;;;;5036400;28;20018;-70
2022/01/02 04:19:44;;;;;;;12.63;8.15;;;11.50;99.90;;;;;;5036071;28;20018;-70
2022/01/02 04:22:10;;;;;;;20.38;9.18;;;11.40;99.90;;;;;;5036308;28;20449;-70
2022/01/02 04:24:35;;;;;;;13.05;7.18;;;11.50;99.90;;;;;;5035119;28;20040;-71
2022/01/02 04:27:01;;;;;;;14.48;8.20;;;11.50;99.90;;;;;;5036824;28;20030;-70
2022/01/02 04:29:27;;;;;;;14.52;8.73;;;11.50;99.90;;;;;;5036109;28;20487;-70
2022/01/02 04:31:52;;;;;;;16.67;7.93;;;11.40;99.90;;;;;;5036062;28;20375;-70
2022/01/02 04:34:17;;;;;;;17.02;8.25;;;11.50;99.90;;;;;;5036247;28;20040;-70
2022/01/02 04:36:43;;;;;;;16.50;8.00;;;11.50;99.90;;;;;;5036052;28;20033;-70
2022/01/02 04:39:09;;;;;;;14.48;7.82;;;11.50;99.90;;;;;;5036134;28;20037;-70
2022/01/02 04:41:34;;;;;;;17.98;8.95;;;11.50;99.90;;;;;;5036377;28;20107;-70
2022/01/02 04:44:00;;;;;;;16.38;7.53;;;11.50;99.90;;;;;;5036716;28;20036;-70
2022/01/02 04:46:25;;;;;;;12.48;7.70;;;11.50;99.90;;;;;;5038282;28;20043;-70
2022/01/02 04:48:51;;;;;;;21.58;7.82;;;11.50;99.90;;;;;;5036125;28;20055;-70
2022/01/02 04:51:16;;;;;;;14.88;7.80;;;11.50;99.90;;;;;;5036777;28;20025;-70
2022/01/02 04:53:47;;;;;;;17.00;8.18;;;11.50;99.90;;;;;;5035990;28;20037;-70
2022/01/02 04:56:14;;;;;;;18.73;7.15;;;11.50;99.90;;;;;;5036188;28;20021;-70
2022/01/02 04:58:39;;;;;;;13.50;7.90;;;11.60;99.90;;;;;;5036219;28;20061;-71
2022/01/02 05:01:11;;;;;;;9.95;6.65;;;11.60;99.90;;;;;;5035586;28;20091;-70
2022/01/02 05:03:37;;;;;;;18.95;7.47;;;11.60;99.90;;;;;;5035243;28;20025;-70
2022/01/02 05:06:02;;;;;;;17.52;7.80;;;11.60;99.90;;;;;;5035434;28;20029;-71
2022/01/02 05:08:28;;;;;;;13.00;7.60;;;11.60;99.90;;;;;;5035664;28;20063;-70
2022/01/02 05:10:53;;;;;;;16.85;8.70;;;11.60;99.90;;;;;;5035903;28;20022;-70
2022/01/02 05:13:19;;;;;;;18.40;7.72;;;11.60;99.90;;;;;;5035794;28;20049;-70
2022/01/02 05:15:44;;;;;;;19.75;7.95;;;11.60;99.90;;;;;;5036330;28;20545;-69
2022/01/02 05:18:10;;;;;;;16.33;7.40;;;11.60;99.90;;;;;;5036899;28;20167;-70
2022/01/02 05:20:36;;;;;;;13.23;7.25;;;11.60;99.90;;;;;;5035247;28;20033;-70
2022/01/02 05:23:01;;;;;;;18.45;8.02;;;11.60;99.90;;;;;;5036852;28;20061;-70
2022/01/02 05:25:26;;;;;;;19.75;7.78;;;11.60;99.90;;;;;;5037172;28;20037;-70
2022/01/02 05:27:52;;;;;;;18.38;7.60;;;11.60;99.90;;;;;;5037611;28;20033;-70
2022/01/02 05:30:18;;;;;;;13.55;7.25;;;11.60;99.90;;;;;;5038359;28;20025;-70
2022/01/02 05:32:43;;;;;;;13.43;7.00;;;11.60;99.90;;;;;;5038823;28;20026;-70
2022/01/02 05:35:09;;;;;;;12.45;6.47;;;11.60;99.90;;;;;;5039143;28;20037;-70
2022/01/02 05:37:34;;;;;;;14.23;7.05;;;11.70;99.90;;;;;;5040844;28;20029;-70
2022/01/02 05:40:00;;;;;;;12.07;7.25;;;11.70;99.90;;;;;;5038716;28;20368;-70
2022/01/02 05:42:25;;;;;;;14.40;6.75;;;11.70;99.90;;;;;;5035084;28;20022;-70
2022/01/02 05:44:50;;;;;;;18.77;7.35;;;11.70;99.90;;;;;;5034602;28;20029;-70
2022/01/02 05:47:16;;;;;;;20.35;7.57;;;11.70;99.90;;;;;;5034521;28;20095;-70
2022/01/02 05:49:41;;;;;;;15.10;6.65;;;11.80;99.90;;;;;;5034974;28;20032;-70
2022/01/02 05:52:07;;;;;;;15.00;6.45;;;11.80;99.90;;;;;;5034091;28;20033;-70
2022/01/02 05:54:32;;;;;;;12.93;6.57;;;11.70;99.90;;;;;;5034553;28;20021;-70
2022/01/02 05:56:58;;;;;;;14.48;6.15;;;11.80;99.90;;;;;;5034553;28;20033;-70
2022/01/02 05:59:24;;;;;;;13.35;6.43;;;11.80;99.90;;;;;;5034641;28;20076;-70
2022/01/02 06:01:50;;;;;;;15.18;6.28;;;11.80;99.90;;;;;;5032959;28;20025;-70
2022/01/02 06:04:16;;;;;;;13.85;6.65;;;11.90;99.90;;;;;;5034052;28;20547;-73
2022/01/02 06:06:43;;;;;;;16.17;6.32;;;11.90;99.90;;;;;;5033744;28;20494;-72
2022/01/02 06:09:09;;;;;;;10.63;5.60;;;11.90;99.90;;;;;;5033319;28;20022;-72
2022/01/02 06:11:35;;;;;;;16.98;6.35;;;12.00;99.90;;;;;;5034079;28;20351;-72
2022/01/02 06:14:00;;;;;;;15.07;6.55;;;12.00;99.90;;;;;;5033764;28;20075;-72
2022/01/02 06:16:26;;;;;;;14.80;6.15;;;12.00;99.90;;;;;;5032295;28;20037;-72
2022/01/02 06:18:53;;;;;;;12.98;5.68;;;12.00;99.90;;;;;;5034217;28;20032;-72
2022/01/02 06:21:19;;;;;;;17.75;5.63;;;12.00;99.90;;;;;;5033713;28;20025;-72
2022/01/02 06:23:44;;;;;;;10.43;5.30;;;12.00;99.90;;;;;;5032141;28;20028;-72
2022/01/02 06:26:10;;;;;;;14.82;5.72;;;12.00;99.90;;;;;;5034084;28;20116;-72
2022/01/02 06:28:35;;;;;;;10.45;5.30;;;12.10;99.90;;;;;;5033326;28;20034;-72
2022/01/02 06:31:01;;;;;;;17.15;5.65;;;12.20;99.90;;;;;;5034250;28;20068;-72
2022/01/02 06:33:26;;;;;;;18.52;6.10;;;12.20;99.90;;;;;;5033673;28;20029;-72
2022/01/02 06:35:52;;;;;;;14.80;4.88;;;12.20;99.90;;;;;;5033262;28;20034;-72
2022/01/02 06:38:20;;;;;;;10.88;5.00;;;12.20;99.90;;;;;;5032223;28;20052;-72
2022/01/02 06:40:46;;;;;;;17.65;5.60;;;12.20;99.90;;;;;;5033653;28;20018;-72
2022/01/02 06:43:13;;;;;;;15.13;5.43;;;12.30;99.90;;;;;;5034013;28;20056;-72
2022/01/02 06:45:39;;;;;;;12.35;4.90;;;12.30;99.90;;;;;;5033816;28;20501;-72
2022/01/02 06:48:05;;;;;;;11.82;4.32;;;12.30;99.90;;;;;;5034186;28;20120;-72
2022/01/02 06:50:31;;;;;;;17.77;5.50;;;12.30;99.90;;;;;;5033655;28;20097;-72
2022/01/02 06:52:57;;;;;;;13.10;5.00;;;12.30;99.90;;;;;;5033755;28;20017;-71
2022/01/02 06:55:22;;;;;;;14.30;5.45;;;12.30;99.90;;;;;;5034604;28;20083;-71
2022/01/02 06:57:48;;;;;;;17.60;5.57;;;12.40;99.90;;;;;;5034293;28;20510;-71
2022/01/02 07:00:14;;;;;;;15.10;5.03;;;12.40;99.90;;;;;;5034094;28;20022;-71
2022/01/02 07:02:39;;;;;;;9.63;4.82;;;12.40;99.90;;;;;;5036077;28;20057;-71
2022/01/02 07:05:05;;;;;;;12.30;4.55;;;12.50;99.90;;;;;;5033326;28;20034;-72
2022/01/02 07:07:31;;;;;;;11.10;5.30;;;12.50;99.90;;;;;;5032900;28;20029;-72
2022/01/02 07:09:56;;;;;;;10.77;5.03;;;12.40;99.90;;;;;;5033352;28;20060;-72
2022/01/02 07:12:23;;;;;;;12.88;4.18;;;12.50;99.90;;;;;;5033865;28;20080;-72
2022/01/02 07:14:50;;;;;;;8.50;4.50;;;12.50;99.90;;;;;;5033557;28;20038;-72
2022/01/02 07:17:15;;;;;;;13.32;4.38;;;12.50;99.90;;;;;;5033473;28;20369;-72
2022/01/02 07:19:41;;;;;;;10.27;4.07;;;12.50;99.90;;;;;;5034184;28;20133;-72
2022/01/02 07:22:07;;;;;;;15.65;5.07;;;12.50;99.90;;;;;;5033621;28;20075;-72
2022/01/02 07:24:33;;;;;;;9.52;4.45;;;12.50;99.90;;;;;;5032347;28;20029;-71
2022/01/02 07:26:59;;;;;;;14.25;4.22;;;12.50;99.90;;;;;;5034258;28;20021;-72
2022/01/02 07:29:25;;;;;;;12.50;4.53;;;12.50;99.90;;;;;;5037152;28;20113;-72
2022/01/02 07:31:50;;;;;;;10.88;5.05;;;12.40;99.90;;;;;;5038293;28;20493;-72
2022/01/02 07:34:16;;;;;;;13.48;4.70;;;12.50;99.90;;;;;;5037750;28;20083;-72
2022/01/02 07:36:44;;;;;;;12.60;5.03;;;12.50;99.90;;;;;;5035602;28;20053;-72
2022/01/02 07:39:12;;;;;;;11.80;4.68;;;12.50;99.90;;;;;;5037346;28;20026;-72
2022/01/02 07:41:38;;;;;;;10.95;4.43;;;12.50;99.90;;;;;;5036584;28;20021;-72
2022/01/02 07:44:03;;;;;;;9.98;4.95;;;12.50;99.90;;;;;;5036694;28;20018;-71
2022/01/02 07:46:30;;;;;;;16.38;5.53;;;12.50;99.90;;;;;;5041685;28;20029;-72
2022/01/02 07:48:56;;;;;;;10.98;4.85;;;12.50;99.90;;;;;;5036822;28;20399;-72
2022/01/02 07:51:21;;;;;;;13.95;5.13;;;12.50;99.90;;;;;;5036532;28;20064;-71
2022/01/02 07:53:47;;;;;;;16.83;5.50;;;12.50;99.90;;;;;;5036670;28;20064;-72
2022/01/02 07:56:13;;;;;;;14.75;5.45;;;12.40;99.90;;;;;;5036843;28;20029;-72
2022/01/02 07:58:39;;;;;;;13.63;4.75;;;12.50;99.90;;;;;;5036835;28;20030;-72
2022/01/02 08:01:04;;;;;;;11.90;4.45;;;12.50;99.90;;;;;;5035087;28;20103;-71
2022/01/02 08:03:30;;;;;;;17.48;4.70;;;12.50;99.90;;;;;;5034833;28;20557;-71
2022/01/02 08:05:55;;;;;;;18.08;5.63;;;12.50;99.90;;;;;;5034279;28;20433;-72
2022/01/02 08:08:21;;;;;;;12.80;5.22;;;12.50;99.90;;;;;;5035806;28;20033;-72
2022/01/02 08:10:47;;;;;;;14.43;5.22;;;12.50;99.90;;;;;;5034041;28;20022;-72
2022/01/02 08:13:12;;;;;;;19.08;5.00;;;12.50;99.90;;;;;;5035599;28;20140;-72
2022/01/02 08:15:38;;;;;;;17.00;5.60;;;12.50;99.90;;;;;;5036306;28;20367;-72
2022/01/02 08:18:03;;;;;;;11.70;4.78;;;12.50;99.90;;;;;;5035640;28;20079;-72
2022/01/02 08:20:29;;;;;;;19.42;5.30;;;12.40;99.90;;;;;;5036279;28;20057;-71
2022/01/02 08:22:56;;;;;;;14.77;6.38;;;12.50;99.90;;;;;;5035779;28;20112;-72
2022/01/02 08:25:22;;;;;;;15.77;5.28;;;12.50;99.90;;;;;;5035809;28;20112;-72
2022/01/02 08:27:47;;;;;;;10.50;5.28;;;12.50;99.90;;;;;;5035494;28;20359;-71
2022/01/02 08:30:13;;;;;;;15.60;5.25;;;12.50;99.90;;;;;;5035194;28;20056;-71
2022/01/02 08:32:39;;;;;;;12.82;5.53;;;12.60;99.90;;;;;;5035374;28;20022;-71
2022/01/02 08:35:05;;;;;;;9.50;4.32;;;12.60;99.90;;;;;;5035170;28;20029;-71
2022/01/02 08:37:32;;;;;;;14.52;5.28;;;12.60;99.90;;;;;;5035032;28;20112;-71
2022/01/02 08:39:57;;;;;;;14.23;5.18;;;12.60;99.90;;;;;;5035077;28;20052;-73
2022/01/02 08:42:23;;;;;;;12.35;4.88;;;12.70;99.90;;;;;;5035509;28;20463;-72
2022/01/02 08:44:48;;;;;;;11.25;4.25;;;12.70;99.90;;;;;;5033722;28;20160;-72
2022/01/02 08:47:14;;;;;;;15.88;5.05;;;12.70;99.90;;;;;;5034856;28;20025;-72
2022/01/02 08:49:39;;;;;;;14.38;5.03;;;12.70;99.90;;;;;;5033411;28;20437;-71
2022/01/02 08:52:05;;;;;;;12.38;5.20;;;12.80;99.90;;;;;;5035732;28;20022;-73
2022/01/02 08:54:31;;;;;;;9.57;4.28;;;12.80;99.90;;;;;;5036120;28;20075;-72
2022/01/02 08:56:56;;;;;;;14.05;4.82;;;12.80;99.90;;;;;;5034738;28;20459;-72
2022/01/02 08:59:27;;;;;;;11.02;5.03;;;12.80;99.90;;;;;;5035227;28;20408;-71
2022/01/02 09:01:54;;;;;;;8.88;4.57;;;12.80;99.90;;;;;;5035914;28;20026;-72
2022/01/02 09:04:19;;;;;;;11.68;4.25;;;12.80;99.90;;;;;;5033550;28;20124;-71
2022/01/02 09:06:45;;;;;;;12.85;4.80;;;12.70;99.90;;;;;;5033616;28;20458;-72
2022/01/02 09:09:11;;;;;;;12.45;4.55;;;12.70;99.90;;;;;;5035511;28;20116;-72
2022/01/02 09:11:36;;;;;;;10.55;4.32;;;12.70;99.90;;;;;;5035995;28;20025;-72
2022/01/02 09:14:02;;;;;;;11.82;4.22;;;12.70;99.90;;;;;;5033460;28;20025;-74
2022/01/02 09:16:28;;;;;;;7.82;3.80;;;12.80;99.90;;;;;;5034683;28;20029;-71
2022/01/02 09:18:54;;;;;;;7.88;4.20;;;12.80;99.90;;;;;;5034544;28;20159;-72
2022/01/02 09:21:20;;;;;;;11.52;4.60;;;12.80;99.90;;;;;;5035160;28;20068;-71
2022/01/02 09:23:45;;;;;;;13.13;4.47;;;12.80;99.90;;;;;;5035247;28;20021;-71
2022/01/02 09:26:11;;;;;;;18.42;4.70;;;12.80;99.90;;;;;;5035525;28;20473;-71
2022/01/02 09:28:37;;;;;;;12.52;4.30;;;12.80;99.90;;;;;;5035602;28;20098;-71
2022/01/02 09:31:02;;;;;;;8.48;4.30;;;12.80;99.90;;;;;;5035791;28;20366;-72
2022/01/02 09:33:28;;;;;;;11.15;4.50;;;12.80;99.90;;;;;;5035686;28;20044;-72
2022/01/02 09:35:54;;;;;;;9.05;4.35;;;12.80;99.90;;;;;;5035713;28;20013;-71
2022/01/02 09:38:19;;;;;;;6.57;4.00;;;12.80;99.90;;;;;;5034153;28;20309;-72
2022/01/02 09:40:46;;;;;;;12.93;4.32;;;12.80;99.90;;;;;;5037425;28;20029;-72
2022/01/02 09:43:11;;;;;;;10.80;4.63;;;12.80;99.90;;;;;;5037242;28;20100;-72
2022/01/02 09:45:38;;;;;;;13.27;4.95;;;12.80;99.90;;;;;;5038684;28;20091;-72
2022/01/02 09:48:05;;;;;;;13.90;4.40;;;12.80;99.90;;;;;;5039610;28;20029;-72
2022/01/02 09:50:32;;;;;;;8.63;4.30;;;12.80;99.90;;;;;;5038311;28;20105;-72
2022/01/02 09:52:59;;;;;;;9.07;4.32;;;12.70;99.90;;;;;;5037381;28;20092;-71
2022/01/02 09:55:25;;;;;;;9.48;4.43;;;12.80;99.90;;;;;;5036260;28;20109;-72
2022/01/02 09:57:53;;;;;;;11.77;5.05;;;12.80;99.90;;;;;;5035379;28;20104;-72
2022/01/02 10:00:20;;;;;;;7.07;3.95;;;12.80;99.90;;;;;;5035606;28;20021;-72
2022/01/02 10:03:06;;;;;;;10.80;4.45;;;12.70;99.90;;;;;;5035876;28;20029;-72
2022/01/02 10:05:56;;;;;;;8.93;4.38;;;12.80;99.90;;;;;;5033655;28;20517;-73
2022/01/02 10:08:27;;;;;;;14.55;5.00;;;12.80;99.90;;;;;;5035556;28;20064;-73
2022/01/02 10:11:09;;;;;;;12.45;4.30;;;12.90;99.90;;;;;;5043311;28;20049;-74
2022/01/02 10:13:44;;;;;;;9.27;4.40;;;12.90;99.90;;;;;;5035054;28;20013;-72
2022/01/02 10:16:20;;;;;;;15.23;4.57;;;12.90;99.90;;;;;;5034867;28;20026;-72
2022/01/02 10:18:48;;;;;;;14.55;5.15;;;12.90;99.90;;;;;;5035112;28;20430;-72
2022/01/02 10:21:27;;;;;;;12.30;4.22;;;12.90;99.90;;;;;;5034540;28;20060;-72
2022/01/02 10:24:15;;;;;;;14.05;5.13;;;12.90;99.90;;;;;;5033083;28;20454;-72
2022/01/02 10:27:02;;;;;;;12.32;4.50;;;12.90;99.90;;;;;;5034387;28;20097;-72
2022/01/02 10:29:42;;;;;;;13.80;4.82;;;12.90;99.90;;;;;;5032894;28;20450;-72
2022/01/02 10:32:33;;;;;;;10.15;4.35;;;13.00;99.90;;;;;;5034663;28;20390;-72
2022/01/02 10:35:15;;;;;;;10.43;4.45;;;13.00;99.90;;;;;;5033204;28;20051;-73
2022/01/02 10:37:54;;;;;;;9.73;4.35;;;13.00;99.90;;;;;;5034381;28;20378;-73
2022/01/02 10:40:23;;;;;;;9.18;3.92;;;13.00;99.90;;;;;;5034466;28;20095;-74
2022/01/02 10:42:49;;;;;;;12.80;4.90;;;13.10;99.90;;;;;;5034433;28;20458;-72
2022/01/02 10:45:31;;;;;;;19.98;4.72;;;13.10;99.90;;;;;;5034973;28;20031;-71
2022/01/02 10:47:57;;;;;;;14.18;4.47;;;13.10;99.90;;;;;;5034880;28;20029;-73
2022/01/02 10:50:22;;;;;;;12.70;4.68;;;13.20;99.90;;;;;;5034592;28;20540;-71
2022/01/02 10:52:48;;;;;;;9.77;4.35;;;13.20;99.90;;;;;;5034814;28;20105;-71
2022/01/02 10:55:15;;;;;;;10.63;4.22;;;13.20;99.90;;;;;;5033412;28;20076;-72
2022/01/02 10:57:47;;;;;;;15.88;3.92;;;13.20;99.90;;;;;;5035876;28;20037;-71
2022/01/02 11:00:14;;;;;;;8.55;4.13;;;13.20;99.90;;;;;;5037043;28;20034;-72
2022/01/02 11:02:39;;;;;;;13.43;4.55;;;13.20;99.90;;;;;;5039574;28;20426;-71
2022/01/02 11:05:08;;;;;;;11.35;4.78;;;13.20;99.90;;;;;;5040079;28;20174;-72
2022/01/02 11:07:47;;;;;;;14.63;4.82;;;13.20;99.90;;;;;;5041879;28;20022;-72
2022/01/02 11:10:21;;;;;;;13.45;4.07;;;13.20;99.90;;;;;;5040524;28;20026;-73
2022/01/02 11:12:48;;;;;;;12.20;4.53;;;13.20;99.90;;;;;;5040016;28;20021;-72
2022/01/02 11:15:19;;;;;;;12.27;4.22;;;13.20;99.90;;;;;;5037995;28;20021;-73
2022/01/02 11:17:45;;;;;;;13.80;4.05;;;13.30;99.90;;;;;;5039822;28;20041;-72
2022/01/02 11:20:15;;;;;;;9.77;4.88;;;13.20;99.90;;;;;;5039920;28;20025;-73
2022/01/02 11:22:50;;;;;;;9.25;4.47;;;13.20;99.90;;;;;;5040860;28;20025;-72
2022/01/02 11:25:42;;;;;;;13.00;5.00;;;13.20;99.90;;;;;;5039657;28;20027;-73
2022/01/02 11:28:29;;;;;;;11.80;4.38;;;13.20;99.90;;;;;;5040901;28;20021;-73
2022/01/02 11:30:55;;;;;;;7.40;3.63;;;13.20;99.90;;;;;;5040165;28;20026;-72
2022/01/02 11:33:33;;;;;;;15.00;4.68;;;13.30;99.90;;;;;;5037899;28;20021;-72
2022/01/02 11:36:01;;;;;;;14.07;5.15;;;13.30;99.90;;;;;;5044293;28;20021;-73
2022/01/02 11:38:43;;;;;;;12.07;4.82;;;13.40;99.90;;;;;;5043322;28;20021;-73
2022/01/02 11:41:09;;;;;;;8.25;3.97;;;13.40;99.90;;;;;;5038786;28;20219;-74
2022/01/02 11:43:38;;;;;;;9.85;4.55;;;13.40;99.90;;;;;;5039185;28;20044;-73
2022/01/02 11:46:14;;;;;;;10.25;4.45;;;13.40;99.90;;;;;;5038751;28;20489;-74
2022/01/02 11:48:39;;;;;;;21.50;4.53;;;13.50;99.90;;;;;;5038996;28;20025;-73
2022/01/02 11:51:05;;;;;;;9.27;4.93;;;13.50;99.90;;;;;;5037008;28;20022;-74
2022/01/02 11:53:34;;;;;;;11.93;5.43;;;13.50;99.90;;;;;;5038779;28;20025;-73
2022/01/02 11:56:01;;;;;;;14.35;5.75;;;13.50;99.90;;;;;;5038084;28;20028;-73
2022/01/02 11:58:38;;;;;;;13.35;6.47;;;13.60;99.90;;;;;;5038062;28;20132;-73
2022/01/02 12:01:07;;;;;;;9.68;5.47;;;13.60;99.90;;;;;;5039228;28;20025;-73
2022/01/02 12:03:42;;;;;;;10.38;5.63;;;13.70;99.90;;;;;;5042043;28;20091;-73
2022/01/02 12:06:21;;;;;;;12.68;5.47;;;13.80;99.90;;;;;;5036673;28;20051;-73
2022/01/02 12:08:48;;;;;;;11.38;5.55;;;13.80;99.90;;;;;;5036893;28;20029;-72
2022/01/02 12:11:32;;;;;;;12.73;5.70;;;13.80;99.90;;;;;;5037510;28;20022;-72
2022/01/02 12:14:11;;;;;;;13.02;5.88;;;13.80;99.90;;;;;;5036324;28;20026;-72
2022/01/02 12:16:39;;;;;;;7.53;4.47;;;13.70;99.90;;;;;;5036649;28;20026;-72
2022/01/02 12:19:06;;;;;;;11.20;5.05;;;13.70;99.90;;;;;;5037557;28;20184;-73
2022/01/02 12:21:33;;;;;;;9.38;5.07;;;13.70;99.90;;;;;;5038256;28;20033;-72
2022/01/02 12:24:01;;;;;;;7.97;4.68;;;13.70;99.90;;;;;;5035878;28;20021;-72
2022/01/02 12:26:39;;;;;;;11.50;4.55;;;13.60;99.90;;;;;;5059845;22;20053;-74
2022/01/02 12:29:12;;;;;;;11.25;4.88;;;13.60;99.90;;;;;;5037609;28;20025;-74
2022/01/02 12:31:39;;;;;;;10.07;5.22;;;13.50;99.90;;;;;;5035879;28;20442;-74
2022/01/02 12:34:20;;;;;;;12.30;5.65;;;13.50;99.90;;;;;;5035093;28;20025;-74
2022/01/02 12:36:48;;;;;;;8.27;4.50;;;13.50;99.90;;;;;;5035078;28;20390;-74
2022/01/02 12:39:16;;;;;;;10.90;4.15;;;13.50;99.90;;;;;;5034934;28;20025;-73
2022/01/02 12:41:44;;;;;;;8.57;4.22;;;13.50;99.90;;;;;;5034970;28;20100;-72
2022/01/02 12:44:15;;;;;;;11.82;4.32;;;13.50;99.90;;;;;;5034934;28;20014;-73
2022/01/02 12:46:48;;;;;;;9.07;3.80;;;13.50;99.90;;;;;;5035577;28;20081;-73
2022/01/02 12:49:16;;;;;;;6.63;3.78;;;13.50;99.90;;;;;;5035938;28;20025;-74